XRH weather

RAAF Base Richmond
Richmond, New South Wales, Australia

Public forecast

Using degrees Celsius for public forecast. Weather courtesy of forecast.io.

Current aviation weather report (METAR) for RAAF Base Richmond

Retrieved 2020/01/20 08:30 UTC (0 seconds ago):

YSRI 200830Z AUTO 17008KT 9999 // NCD 27/18 Q1000 RF000/0000

Aviation forecast (TAF) for RAAF Base Richmond

Retrieved 2020/01/20 06:36 UTC (2 hours ago):

TAF YSRI 200511Z 2006/2106 04010KT 9999 -SHRA FEW015 SCT050 FM201200 VRB03KT CAVOK FM210200 30014KT CAVOK PROB40 TEMPO 2006/2010 VRB30G50KT 2000 TSRA TSGR BKN010 BKN040CB